Time,TemperatureF,DewpointF,PressureIn,WindDirection,WindDirectionDegrees,WindSpeedMPH,WindSpeedGustMPH,Humidity,HourlyPrecipIn,Conditions,Clouds,dailyrainin,SoftwareType,DateUTC
2013-07-04 00:01:00,77.3,63.3,29.91,SE,146,4.6,4.6,62,0.00,CLR,,0.00,WeatherDisplay:10.37,2013-07-04 05:01:00,
2013-07-04 00:06:00,77.1,63.1,29.91,SSE,165,6.0,6.0,62,0.00,CLR,,0.00,WeatherDisplay:10.37,2013-07-04 05:06:00,
2013-07-04 00:11:00,76.8,62.8,29.92,SSE,162,4.6,4.6,62,0.00,CLR,,0.00,WeatherDisplay:10.37,2013-07-04 05:11:00,
2013-07-04 00:16:00,76.8,62.8,29.92,SE,143,3.5,3.5,62,0.00,CLR,,0.00,WeatherDisplay:10.37,2013-07-04 05:16:00,
2013-07-04 00:21:00,76.8,62.8,29.92,SSE,150,3.5,3.5,62,0.00,CLR,,0.00,WeatherDisplay:10.37,2013-07-04 05:21:00,
2013-07-04 00:26:00,76.8,62.8,29.92,SE,136,4.0,4.0,62,0.00,CLR,,0.00,WeatherDisplay:10.37,2013-07-04 05:26:00,
2013-07-04 00:31:00,76.8,62.8,29.92,SSW,194,6.0,6.0,62,0.00,CLR,,0.00,WeatherDisplay:10.37,2013-07-04 05:31:00,
2013-07-04 00:36:00,76.6,63.1,29.92,SE,143,5.0,5.0,63,0.00,CLR,,0.00,WeatherDisplay:10.37,2013-07-04 05:36:00,
2013-07-04 00:41:00,76.4,62.9,29.93,SE,124,4.6,4.6,63,0.00,CLR,,0.00,WeatherDisplay:10.37,2013-07-04 05:41:00,
2013-07-04 00:46:00,76.3,63.2,29.93,SE,144,8.1,8.1,64,0.00,CLR,,0.00,WeatherDisplay:10.37,2013-07-04 05:46:00,
2013-07-04 00:51:00,76.1,63.5,29.93,SE,133,6.9,6.9,65,0.00,CLR,,0.00,WeatherDisplay:10.37,2013-07-04 05:51:00,
2013-07-04 00:56:00,75.9,63.3,29.93,SSE,156,5.8,5.8,65,0.00,CLR,,0.00,WeatherDisplay:10.37,2013-07-04 05:56:00,
2013-07-04 01:01:00,75.6,63.4,29.93,SSE,156,5.8,5.8,66,0.00,CLR,,0.00,WeatherDisplay:10.37,2013-07-04 06:01:00,
2013-07-04 01:06:00,75.7,64.0,29.93,SSE,150,6.0,6.0,67,0.00,CLR,,0.00,WeatherDisplay:10.37,2013-07-04 06:06:00,
2013-07-04 01:11:00,75.8,64.1,29.93,SSE,150,6.9,6.9,67,0.00,CLR,,0.00,WeatherDisplay:10.37,2013-07-04 06:11:00,
2013-07-04 01:16:00,75.7,64.4,29.93,SSE,153,5.8,5.8,68,0.00,CLR,,0.00,WeatherDisplay:10.37,2013-07-04 06:16:00,
2013-07-04 01:21:00,75.5,64.2,29.93,SE,128,7.0,7.0,68,0.00,CLR,,0.00,WeatherDisplay:10.37,2013-07-04 06:21:00,
2013-07-04 01:26:00,75.3,64.4,29.93,ESE,122,5.8,5.8,69,0.00,CLR,,0.00,WeatherDisplay:10.37,2013-07-04 06:26:00,
2013-07-04 01:31:00,75.0,64.1,29.94,ESE,103,3.5,3.5,69,0.00,CLR,,0.00,WeatherDisplay:10.37,2013-07-04 06:31:00,
2013-07-04 01:36:00,74.9,64.5,29.94,ESE,118,3.5,3.5,70,0.00,CLR,,0.00,WeatherDisplay:10.37,2013-07-04 06:36:00,
2013-07-04 01:41:00,74.7,64.3,29.94,East,94,3.5,3.5,70,0.00,CLR,,0.00,WeatherDisplay:10.37,2013-07-04 06:41:00,
2013-07-04 01:46:00,74.5,64.5,29.94,East,97,4.6,4.6,71,0.00,CLR,,0.00,WeatherDisplay:10.37,2013-07-04 06:46:00,
2013-07-04 01:51:00,74.3,64.7,29.94,East,99,3.5,3.5,72,0.00,CLR,,0.00,WeatherDisplay:10.37,2013-07-04 06:51:00,
2013-07-04 01:56:00,74.2,64.6,29.94,SE,131,0.0,0.0,72,0.00,CLR,,0.00,WeatherDisplay:10.37,2013-07-04 06:56:00,
2013-07-04 02:01:00,73.9,64.7,29.94,SE,128,3.5,3.5,73,0.00,CLR,,0.00,WeatherDisplay:10.37,2013-07-04 07:01:00,
2013-07-04 02:06:00,73.9,64.7,29.94,SE,128,1.1,1.1,73,0.00,CLR,,0.00,WeatherDisplay:10.37,2013-07-04 07:06:00,
2013-07-04 02:11:00,73.8,65.0,29.94,ESE,109,3.5,3.5,74,0.00,CLR,,0.00,WeatherDisplay:10.37,2013-07-04 07:11:00,
2013-07-04 02:16:00,73.6,64.8,29.94,SSE,156,2.3,2.3,74,0.00,CLR,,0.00,WeatherDisplay:10.37,2013-07-04 07:16:00,
2013-07-04 02:21:00,73.4,65.4,29.94,SSE,156,3.0,3.0,76,0.00,CLR,,0.00,WeatherDisplay:10.37,2013-07-04 07:21:00,
2013-07-04 02:26:00,73.3,65.7,29.94,SE,130,3.5,3.5,77,0.00,CLR,,0.00,WeatherDisplay:10.37,2013-07-04 07:26:00,
2013-07-04 02:31:00,73.3,65.7,29.94,SE,131,2.3,2.3,77,0.00,CLR,,0.00,WeatherDisplay:10.37,2013-07-04 07:31:00,
2013-07-04 02:36:00,73.2,65.6,29.94,ESE,123,1.1,1.1,77,0.00,CLR,,0.00,WeatherDisplay:10.37,2013-07-04 07:36:00,
2013-07-04 02:41:00,73.2,65.9,29.94,East,81,1.1,1.1,78,0.00,CLR,,0.00,WeatherDisplay:10.37,2013-07-04 07:41:00,
2013-07-04 02:46:00,72.9,65.6,29.94,East,86,0.0,0.0,78,0.00,CLR,,0.00,WeatherDisplay:10.37,2013-07-04 07:46:00,
2013-07-04 02:51:00,72.8,65.5,29.94,East,86,0.0,0.0,78,0.00,CLR,,0.00,WeatherDisplay:10.37,2013-07-04 07:51:00,
2013-07-04 02:56:00,72.8,65.5,29.94,East,86,0.0,0.0,78,0.00,CLR,,0.00,WeatherDisplay:10.37,2013-07-04 07:56:00,
2013-07-04 03:01:00,72.8,65.5,29.94,East,86,0.0,0.0,78,0.00,CLR,,0.00,WeatherDisplay:10.37,2013-07-04 08:01:00,
2013-07-04 03:06:00,72.8,65.5,29.94,East,86,0.0,0.0,78,0.00,CLR,,0.00,WeatherDisplay:10.37,2013-07-04 08:06:00,
2013-07-04 03:11:00,72.8,65.9,29.94,East,86,0.0,0.0,79,0.00,CLR,,0.00,WeatherDisplay:10.37,2013-07-04 08:11:00,
2013-07-04 03:16:00,72.9,66.0,29.94,East,88,0.0,0.0,79,0.00,CLR,,0.00,WeatherDisplay:10.37,2013-07-04 08:16:00,
2013-07-04 03:21:00,73.0,66.1,29.94,West,273,1.1,1.1,79,0.00,CLR,,0.00,WeatherDisplay:10.37,2013-07-04 08:21:00,
2013-07-04 03:26:00,73.0,66.5,29.93,WSW,252,1.1,1.1,80,0.00,CLR,,0.00,WeatherDisplay:10.37,2013-07-04 08:26:00,
2013-07-04 03:31:00,73.0,66.5,29.93,WSW,252,3.5,3.5,80,0.00,CLR,,0.00,WeatherDisplay:10.37,2013-07-04 08:31:00,
2013-07-04 03:36:00,73.1,66.6,29.93,West,264,2.3,2.3,80,0.00,CLR,,0.00,WeatherDisplay:10.37,2013-07-04 08:36:00,
2013-07-04 03:41:00,73.1,66.9,29.93,WSW,246,3.0,3.0,81,0.00,CLR,,0.00,WeatherDisplay:10.37,2013-07-04 08:41:00,
2013-07-04 03:46:00,73.1,67.3,29.93,West,262,2.3,2.3,82,0.00,CLR,,0.00,WeatherDisplay:10.37,2013-07-04 08:46:00,
2013-07-04 03:51:00,73.1,67.6,29.93,West,260,2.3,2.3,83,0.00,CLR,,0.00,WeatherDisplay:10.37,2013-07-04 08:51:00,
2013-07-04 03:56:00,73.1,67.6,29.93,West,260,0.0,0.0,83,0.00,CLR,,0.00,WeatherDisplay:10.37,2013-07-04 08:56:00,
2013-07-04 04:01:00,73.0,67.9,29.93,WSW,257,0.0,0.0,84,0.00,CLR,,0.00,WeatherDisplay:10.37,2013-07-04 09:01:00,
2013-07-04 04:06:00,72.8,67.7,29.93,West,268,0.0,0.0,84,0.00,CLR,,0.00,WeatherDisplay:10.37,2013-07-04 09:06:00,
2013-07-04 04:11:00,72.4,66.6,29.93,NNW,334,0.0,0.0,82,0.00,CLR,,0.00,WeatherDisplay:10.37,2013-07-04 09:11:00,
2013-07-04 04:16:00,71.8,66.4,29.93,NNW,333,0.0,0.0,83,0.00,CLR,,0.00,WeatherDisplay:10.37,2013-07-04 09:16:00,
2013-07-04 04:21:00,71.6,66.5,29.93,NNW,333,0.0,0.0,84,0.00,CLR,,0.00,WeatherDisplay:10.37,2013-07-04 09:21:00,
2013-07-04 04:26:00,71.5,66.4,29.93,NNW,333,0.0,0.0,84,0.00,CLR,,0.00,WeatherDisplay:10.37,2013-07-04 09:26:00,
2013-07-04 04:31:00,71.4,66.3,29.93,NNW,338,0.0,0.0,84,0.00,CLR,,0.00,WeatherDisplay:10.37,2013-07-04 09:31:00,
2013-07-04 04:36:00,71.3,66.2,29.93,NNW,329,0.0,0.0,84,0.00,CLR,,0.00,WeatherDisplay:10.37,2013-07-04 09:36:00,
2013-07-04 04:41:00,71.0,66.3,29.93,NW,319,0.0,0.0,85,0.00,CLR,,0.00,WeatherDisplay:10.37,2013-07-04 09:41:00,
2013-07-04 04:46:00,70.9,66.5,29.93,NW,311,0.0,0.0,86,0.00,CLR,,0.00,WeatherDisplay:10.37,2013-07-04 09:46:00,
2013-07-04 04:51:00,70.7,66.0,29.93,WNW,302,0.0,0.0,85,0.00,CLR,,0.00,WeatherDisplay:10.37,2013-07-04 09:51:00,
2013-07-04 04:56:00,70.5,65.8,29.93,NNW,343,1.1,1.1,85,0.00,CLR,,0.00,WeatherDisplay:10.37,2013-07-04 09:56:00,
2013-07-04 05:01:00,70.3,65.2,29.93,NNW,335,0.0,0.0,84,0.00,CLR,,0.00,WeatherDisplay:10.37,2013-07-04 10:01:00,
2013-07-04 05:06:00,69.8,64.7,29.93,NNW,335,0.0,0.0,84,0.00,CLR,,0.00,WeatherDisplay:10.37,2013-07-04 10:06:00,
2013-07-04 05:11:00,69.5,65.1,29.93,NNW,333,0.0,0.0,86,0.00,CLR,,0.00,WeatherDisplay:10.37,2013-07-04 10:11:00,
2013-07-04 05:16:00,69.2,64.8,29.93,NNW,333,0.0,0.0,86,0.00,CLR,,0.00,WeatherDisplay:10.37,2013-07-04 10:16:00,
2013-07-04 05:21:00,68.9,65.2,29.93,NNW,333,0.0,0.0,88,0.00,CLR,,0.00,WeatherDisplay:10.37,2013-07-04 10:21:00,
2013-07-04 05:26:00,69.4,66.0,29.93,NW,309,0.0,0.0,89,0.00,CLR,,0.00,WeatherDisplay:10.37,2013-07-04 10:26:00,
2013-07-04 05:31:00,69.7,65.7,29.93,NW,326,0.0,0.0,87,0.00,CLR,,0.00,WeatherDisplay:10.37,2013-07-04 10:31:00,
2013-07-04 05:36:00,69.1,65.1,29.93,North,355,0.0,0.0,87,0.00,CLR,,0.00,WeatherDisplay:10.37,2013-07-04 10:36:00,
2013-07-04 05:41:00,68.9,65.2,29.93,North,355,0.0,0.0,88,0.00,CLR,,0.00,WeatherDisplay:10.37,2013-07-04 10:41:00,
2013-07-04 05:46:00,68.4,64.7,29.93,North,354,0.0,0.0,88,0.00,CLR,,0.00,WeatherDisplay:10.37,2013-07-04 10:46:00,
2013-07-04 05:51:00,68.1,64.7,29.92,North,354,0.0,0.0,89,0.00,CLR,,0.00,WeatherDisplay:10.37,2013-07-04 10:51:00,
2013-07-04 05:56:00,67.9,64.5,29.93,North,354,0.0,0.0,89,0.00,CLR,,0.00,WeatherDisplay:10.37,2013-07-04 10:56:00,
2013-07-04 06:01:00,67.6,64.6,29.92,North,354,0.0,0.0,90,0.00,CLR,,0.00,WeatherDisplay:10.37,2013-07-04 11:01:00,
2013-07-04 06:06:00,67.4,64.0,29.93,North,354,0.0,0.0,89,0.00,CLR,,0.00,WeatherDisplay:10.37,2013-07-04 11:06:00,
2013-07-04 06:11:00,67.0,64.0,29.93,North,354,0.0,0.0,90,0.00,CLR,,0.00,WeatherDisplay:10.37,2013-07-04 11:11:00,
2013-07-04 06:16:00,67.0,64.3,29.93,North,354,0.0,0.0,91,0.00,CLR,,0.00,WeatherDisplay:10.37,2013-07-04 11:16:00,
2013-07-04 06:21:00,67.1,64.4,29.93,North,354,0.0,0.0,91,0.00,CLR,,0.00,WeatherDisplay:10.37,2013-07-04 11:21:00,
2013-07-04 06:26:00,67.1,64.7,29.93,North,354,0.0,0.0,92,0.00,CLR,,0.00,WeatherDisplay:10.37,2013-07-04 11:26:00,
2013-07-04 06:31:00,67.2,64.8,29.94,North,356,0.0,0.0,92,0.00,CLR,,0.00,WeatherDisplay:10.37,2013-07-04 11:31:00,
2013-07-04 06:36:00,67.5,64.8,29.94,North,360,0.0,0.0,91,0.00,CLR,,0.00,WeatherDisplay:10.37,2013-07-04 11:36:00,
2013-07-04 06:41:00,67.3,64.6,29.94,North,359,0.0,0.0,91,0.00,CLR,,0.00,WeatherDisplay:10.37,2013-07-04 11:41:00,
2013-07-04 06:46:00,67.2,64.5,29.94,North,359,0.0,0.0,91,0.00,CLR,,0.00,WeatherDisplay:10.37,2013-07-04 11:46:00,
2013-07-04 06:51:00,67.3,64.6,29.94,North,359,0.0,0.0,91,0.00,CLR,,0.00,WeatherDisplay:10.37,2013-07-04 11:51:00,
2013-07-04 06:56:00,67.3,64.9,29.94,North,359,0.0,0.0,92,0.00,CLR,,0.00,WeatherDisplay:10.37,2013-07-04 11:56:00,
2013-07-04 07:01:00,67.6,65.2,29.94,North,360,0.0,0.0,92,0.00,CLR,,0.00,WeatherDisplay:10.37,2013-07-04 12:01:00,
2013-07-04 07:06:00,67.7,65.0,29.94,North,359,0.0,0.0,91,0.00,CLR,,0.00,WeatherDisplay:10.37,2013-07-04 12:06:00,
2013-07-04 07:11:00,67.8,65.1,29.94,North,360,0.0,0.0,91,0.00,CLR,,0.00,WeatherDisplay:10.37,2013-07-04 12:11:00,
2013-07-04 07:16:00,68.2,65.5,29.94,North,360,0.0,0.0,91,0.00,CLR,,0.00,WeatherDisplay:10.37,2013-07-04 12:16:00,
2013-07-04 07:21:00,69.0,66.3,29.94,North,359,0.0,0.0,91,0.00,CLR,,0.00,WeatherDisplay:10.37,2013-07-04 12:21:00,
2013-07-04 07:26:00,69.9,66.8,29.94,North,360,0.0,0.0,90,0.00,CLR,,0.00,WeatherDisplay:10.37,2013-07-04 12:26:00,
2013-07-04 07:31:00,70.5,66.4,29.94,North,359,0.0,0.0,87,0.00,CLR,,0.00,WeatherDisplay:10.37,2013-07-04 12:31:00,
2013-07-04 07:36:00,71.2,66.5,29.95,North,360,0.0,0.0,85,0.00,CLR,,0.00,WeatherDisplay:10.37,2013-07-04 12:36:00,
2013-07-04 07:41:00,71.9,66.1,29.95,North,360,0.0,0.0,82,0.00,CLR,,0.00,WeatherDisplay:10.37,2013-07-04 12:41:00,
2013-07-04 07:46:00,71.8,66.4,29.95,North,360,0.0,0.0,83,0.00,CLR,,0.00,WeatherDisplay:10.37,2013-07-04 12:46:00,
2013-07-04 07:51:00,72.3,66.5,29.95,East,85,0.0,0.0,82,0.00,CLR,,0.00,WeatherDisplay:10.37,2013-07-04 12:51:00,
2013-07-04 07:56:00,71.8,66.7,29.95,ENE,75,0.0,0.0,84,0.00,CLR,,0.00,WeatherDisplay:10.37,2013-07-04 12:56:00,
2013-07-04 08:01:00,71.6,66.5,29.95,East,94,0.0,0.0,84,0.00,CLR,,0.00,WeatherDisplay:10.37,2013-07-04 13:01:00,
2013-07-04 08:06:00,71.8,67.0,29.95,East,94,0.0,0.0,85,0.00,CLR,,0.00,WeatherDisplay:10.37,2013-07-04 13:06:00,
2013-07-04 08:11:00,72.1,67.3,29.95,East,93,1.1,0.0,85,0.00,CLR,,0.00,WeatherDisplay:10.37,2013-07-04 13:11:00,
2013-07-04 08:16:00,72.3,67.5,29.95,East,82,1.1,1.2,85,0.00,CLR,,0.00,WeatherDisplay:10.37,2013-07-04 13:16:00,
2013-07-04 08:21:00,72.4,67.6,29.96,ENE,72,0.0,0.0,85,0.00,CLR,,0.00,WeatherDisplay:10.37,2013-07-04 13:21:00,
2013-07-04 08:26:00,72.7,68.3,29.96,ENE,63,2.3,2.3,86,0.00,CLR,,0.00,WeatherDisplay:10.37,2013-07-04 13:26:00,
2013-07-04 08:31:00,73.3,68.5,29.96,ENE,78,2.3,2.3,85,0.00,CLR,,0.00,WeatherDisplay:10.37,2013-07-04 13:31:00,
2013-07-04 08:36:00,73.5,69.1,29.96,East,85,1.1,1.3,86,0.00,CLR,,0.00,WeatherDisplay:10.37,2013-07-04 13:36:00,
2013-07-04 08:41:00,73.9,69.4,29.96,ENE,77,1.1,1.1,86,0.00,CLR,,0.00,WeatherDisplay:10.37,2013-07-04 13:41:00,
2013-07-04 08:46:00,74.5,70.0,29.96,ENE,72,1.1,0.0,86,0.00,CLR,,0.00,WeatherDisplay:10.37,2013-07-04 13:46:00,
2013-07-04 08:51:00,75.5,70.3,29.96,SE,136,2.3,2.3,84,0.00,CLR,,0.00,WeatherDisplay:10.37,2013-07-04 13:51:00,
2013-07-04 08:56:00,76.5,70.6,29.96,ENE,71,0.0,0.0,82,0.00,CLR,,0.00,WeatherDisplay:10.37,2013-07-04 13:56:00,
2013-07-04 09:01:00,76.7,70.8,29.96,East,90,1.1,0.0,82,0.00,CLR,,0.00,WeatherDisplay:10.37,2013-07-04 14:01:00,
2013-07-04 09:06:00,77.6,70.9,29.96,WSW,246,0.0,0.0,80,0.00,CLR,,0.00,WeatherDisplay:10.37,2013-07-04 14:06:00,
2013-07-04 09:11:00,78.5,71.4,29.96,SE,130,1.1,1.1,79,0.00,CLR,,0.00,WeatherDisplay:10.37,2013-07-04 14:11:00,
2013-07-04 09:16:00,78.8,71.4,29.96,SE,130,2.3,2.3,78,0.00,CLR,,0.00,WeatherDisplay:10.37,2013-07-04 14:16:00,
2013-07-04 09:21:00,79.0,70.4,29.96,SSW,193,5.8,5.8,75,0.00,CLR,,0.00,WeatherDisplay:10.37,2013-07-04 14:21:00,
2013-07-04 09:26:00,79.1,70.5,29.96,SSW,205,4.6,4.6,75,0.00,CLR,,0.00,WeatherDisplay:10.37,2013-07-04 14:26:00,
2013-07-04 09:31:00,79.3,70.7,29.96,WSW,258,3.5,3.5,75,0.00,CLR,,0.00,WeatherDisplay:10.37,2013-07-04 14:31:00,
2013-07-04 09:36:00,79.8,70.4,29.96,SSW,208,5.8,5.8,73,0.00,CLR,,0.00,WeatherDisplay:10.37,2013-07-04 14:36:00,
2013-07-04 09:41:00,80.1,69.8,29.96,SSE,165,6.0,6.0,71,0.00,CLR,,0.00,WeatherDisplay:10.37,2013-07-04 14:41:00,
2013-07-04 09:46:00,80.0,68.9,29.96,WSW,245,5.8,5.8,69,0.00,CLR,,0.00,WeatherDisplay:10.37,2013-07-04 14:46:00,
2013-07-04 09:51:00,80.0,69.3,29.96,WSW,242,9.2,9.2,70,0.00,CLR,,0.00,WeatherDisplay:10.37,2013-07-04 14:51:00,
2013-07-04 09:56:00,80.4,69.3,29.96,WNW,287,5.8,5.8,69,0.00,CLR,,0.00,WeatherDisplay:10.37,2013-07-04 14:56:00,
2013-07-04 10:01:00,80.8,68.8,29.96,WSW,239,5.8,5.8,67,0.00,CLR,,0.00,WeatherDisplay:10.37,2013-07-04 15:01:00,
2013-07-04 10:06:00,81.2,68.3,29.96,WSW,252,9.2,9.2,65,0.00,CLR,,0.00,WeatherDisplay:10.37,2013-07-04 15:06:00,
2013-07-04 10:11:00,82.1,67.8,29.96,SSE,152,3.5,3.5,62,0.00,CLR,,0.00,WeatherDisplay:10.37,2013-07-04 15:11:00,
2013-07-04 10:16:00,82.6,66.3,29.96,SW,218,6.9,6.9,58,0.00,CLR,,0.00,WeatherDisplay:10.37,2013-07-04 15:16:00,
2013-07-04 10:21:00,82.5,66.7,29.96,SSW,210,5.8,5.8,59,0.00,CLR,,0.00,WeatherDisplay:10.37,2013-07-04 15:21:00,
2013-07-04 10:26:00,83.0,67.7,29.96,ESE,113,4.6,4.6,60,0.00,CLR,,0.00,WeatherDisplay:10.37,2013-07-04 15:26:00,
2013-07-04 10:31:00,83.6,66.8,29.96,SE,129,5.8,5.8,57,0.00,CLR,,0.00,WeatherDisplay:10.37,2013-07-04 15:31:00,
2013-07-04 10:36:00,83.8,65.4,29.95,SW,233,5.8,5.8,54,0.00,CLR,,0.00,WeatherDisplay:10.37,2013-07-04 15:36:00,
2013-07-04 10:41:00,83.7,65.8,29.96,SW,226,6.9,6.9,55,0.00,CLR,,0.00,WeatherDisplay:10.37,2013-07-04 15:41:00,
2013-07-04 10:46:00,83.6,65.2,29.96,SSW,203,5.8,5.8,54,0.00,CLR,,0.00,WeatherDisplay:10.37,2013-07-04 15:46:00,
2013-07-04 10:51:00,83.8,65.4,29.96,South,179,3.5,3.5,54,0.00,CLR,,0.00,WeatherDisplay:10.37,2013-07-04 15:51:00,
2013-07-04 10:56:00,84.0,66.1,29.95,SSW,198,6.9,6.9,55,0.00,CLR,,0.00,WeatherDisplay:10.37,2013-07-04 15:56:00,
2013-07-04 11:01:00,84.7,65.7,29.96,West,264,3.5,3.5,53,0.00,CLR,,0.00,WeatherDisplay:10.37,2013-07-04 16:01:00,
2013-07-04 11:06:00,85.4,65.8,29.95,WSW,255,6.9,6.9,52,0.00,CLR,,0.00,WeatherDisplay:10.37,2013-07-04 16:06:00,
2013-07-04 11:11:00,85.5,65.9,29.95,WSW,255,5.8,5.8,52,0.00,CLR,,0.00,WeatherDisplay:10.37,2013-07-04 16:11:00,
2013-07-04 11:16:00,85.6,66.0,29.95,SSE,159,4.6,4.6,52,0.00,CLR,,0.00,WeatherDisplay:10.37,2013-07-04 16:16:00,
2013-07-04 11:21:00,86.1,64.7,29.95,SSW,201,8.1,8.1,49,0.00,CLR,,0.00,WeatherDisplay:10.37,2013-07-04 16:21:00,
2013-07-04 11:26:00,86.7,64.7,29.95,SSW,208,3.5,3.8,48,0.00,CLR,,0.00,WeatherDisplay:10.37,2013-07-04 16:26:00,
2013-07-04 11:31:00,86.7,65.8,29.95,SE,131,0.0,0.0,50,0.00,CLR,,0.00,WeatherDisplay:10.37,2013-07-04 16:31:00,
2013-07-04 11:36:00,87.1,65.6,29.95,SSW,206,3.0,3.0,49,0.00,CLR,,0.00,WeatherDisplay:10.37,2013-07-04 16:36:00,
2013-07-04 11:41:00,87.7,65.0,29.95,SSE,153,10.4,10.4,47,0.00,CLR,,0.00,WeatherDisplay:10.37,2013-07-04 16:41:00,
2013-07-04 11:46:00,88.1,64.7,29.95,SW,217,8.1,8.1,46,0.00,CLR,,0.00,WeatherDisplay:10.37,2013-07-04 16:46:00,
2013-07-04 11:51:00,87.9,64.5,29.95,SW,219,5.8,5.8,46,0.00,CLR,,0.00,WeatherDisplay:10.37,2013-07-04 16:51:00,
2013-07-04 11:56:00,88.1,64.7,29.95,West,276,3.5,3.7,46,0.00,CLR,,0.00,WeatherDisplay:10.37,2013-07-04 16:56:00,
2013-07-04 12:01:00,87.9,65.2,29.95,WNW,300,4.6,4.6,47,0.00,CLR,,0.00,WeatherDisplay:10.37,2013-07-04 17:01:00,
2013-07-04 12:06:00,88.4,64.4,29.95,WSW,252,5.8,5.8,45,0.00,CLR,,0.00,WeatherDisplay:10.37,2013-07-04 17:06:00,
2013-07-04 12:11:00,88.1,64.7,29.94,West,266,8.1,8.1,46,0.00,CLR,,0.00,WeatherDisplay:10.37,2013-07-04 17:11:00,
2013-07-04 12:16:00,87.9,66.4,29.94,SE,135,5.0,5.0,49,0.00,CLR,,0.00,WeatherDisplay:10.37,2013-07-04 17:16:00,
2013-07-04 12:21:00,88.2,65.4,29.94,ENE,70,3.5,3.5,47,0.00,CLR,,0.00,WeatherDisplay:10.37,2013-07-04 17:21:00,
2013-07-04 12:26:00,88.9,64.2,29.94,ESE,122,8.1,8.1,44,0.00,CLR,,0.00,WeatherDisplay:10.37,2013-07-04 17:26:00,
2013-07-04 12:31:00,89.7,62.9,29.94,SE,141,11.5,11.5,41,0.00,CLR,,0.00,WeatherDisplay:10.37,2013-07-04 17:31:00,
2013-07-04 12:36:00,90.2,61.2,29.94,SE,142,10.4,10.4,38,0.00,CLR,,0.00,WeatherDisplay:10.37,2013-07-04 17:36:00,
2013-07-04 12:41:00,90.4,61.3,29.94,SE,143,6.9,6.9,38,0.00,CLR,,0.00,WeatherDisplay:10.37,2013-07-04 17:41:00,
2013-07-04 12:46:00,90.7,62.3,29.93,SSE,162,3.5,3.5,39,0.00,CLR,,0.00,WeatherDisplay:10.37,2013-07-04 17:46:00,
2013-07-04 12:51:00,90.9,62.5,29.93,ESE,114,2.0,2.0,39,0.00,CLR,,0.00,WeatherDisplay:10.37,2013-07-04 17:51:00,
2013-07-04 12:56:00,91.7,62.5,29.93,SSE,156,9.2,9.2,38,0.00,CLR,,0.00,WeatherDisplay:10.37,2013-07-04 17:56:00,
2013-07-04 13:01:00,91.4,61.5,29.93,East,101,9.2,9.2,37,0.00,CLR,,0.00,WeatherDisplay:10.37,2013-07-04 18:01:00,
2013-07-04 13:06:00,91.1,60.4,29.93,SE,125,9.2,9.2,36,0.00,CLR,,0.00,WeatherDisplay:10.37,2013-07-04 18:06:00,
2013-07-04 13:11:00,91.0,61.1,29.93,SW,225,10.4,10.4,37,0.00,CLR,,0.00,WeatherDisplay:10.37,2013-07-04 18:11:00,
2013-07-04 13:16:00,90.7,60.8,29.92,WNW,284,0.0,2.5,37,0.00,CLR,,0.00,WeatherDisplay:10.37,2013-07-04 18:16:00,
2013-07-04 13:21:00,90.7,61.6,29.92,West,259,3.5,3.5,38,0.00,CLR,,0.00,WeatherDisplay:10.37,2013-07-04 18:21:00,
2013-07-04 13:26:00,91.6,61.6,29.92,SSW,205,3.5,3.5,37,0.00,CLR,,0.00,WeatherDisplay:10.37,2013-07-04 18:26:00,
2013-07-04 13:31:00,91.9,61.1,29.92,SE,136,9.2,9.2,36,0.00,CLR,,0.00,WeatherDisplay:10.37,2013-07-04 18:31:00,
2013-07-04 13:36:00,92.3,61.5,29.92,SSW,208,6.9,6.9,36,0.00,CLR,,0.00,WeatherDisplay:10.37,2013-07-04 18:36:00,
2013-07-04 13:41:00,92.1,61.3,29.92,West,267,4.6,4.6,36,0.00,CLR,,0.00,WeatherDisplay:10.37,2013-07-04 18:41:00,
2013-07-04 13:46:00,92.9,61.2,29.92,ENE,65,2.3,2.3,35,0.00,CLR,,0.00,WeatherDisplay:10.37,2013-07-04 18:46:00,
2013-07-04 13:51:00,93.1,61.4,29.91,NE,55,2.3,2.3,35,0.00,CLR,,0.00,WeatherDisplay:10.37,2013-07-04 18:51:00,
2013-07-04 13:56:00,93.2,59.8,29.91,East,89,6.9,6.9,33,0.00,CLR,,0.00,WeatherDisplay:10.37,2013-07-04 18:56:00,
2013-07-04 14:01:00,92.7,57.6,29.91,East,91,9.2,9.2,31,0.00,CLR,,0.00,WeatherDisplay:10.37,2013-07-04 19:01:00,
2013-07-04 14:06:00,93.3,59.0,29.91,NE,56,3.5,3.5,32,0.00,CLR,,0.00,WeatherDisplay:10.37,2013-07-04 19:06:00,
2013-07-04 14:11:00,92.7,58.5,29.90,East,91,10.4,10.4,32,0.00,CLR,,0.00,WeatherDisplay:10.37,2013-07-04 19:11:00,
2013-07-04 14:16:00,91.6,57.6,29.90,East,79,6.9,6.9,32,0.00,CLR,,0.00,WeatherDisplay:10.37,2013-07-04 19:16:00,
2013-07-04 14:21:00,91.7,58.5,29.90,SE,126,3.5,3.5,33,0.00,CLR,,0.00,WeatherDisplay:10.37,2013-07-04 19:21:00,
2013-07-04 14:26:00,93.0,57.9,29.89,East,79,2.3,2.3,31,0.00,CLR,,0.00,WeatherDisplay:10.37,2013-07-04 19:26:00,
2013-07-04 14:31:00,94.4,59.1,29.89,ESE,116,6.9,6.9,31,0.00,CLR,,0.00,WeatherDisplay:10.37,2013-07-04 19:31:00,
2013-07-04 14:36:00,94.1,58.8,29.89,ENE,75,11.5,11.5,31,0.00,CLR,,0.00,WeatherDisplay:10.37,2013-07-04 19:36:00,
2013-07-04 14:41:00,93.1,58.9,29.89,ESE,118,6.9,6.9,32,0.00,CLR,,0.00,WeatherDisplay:10.37,2013-07-04 19:41:00,
2013-07-04 14:46:00,93.0,58.8,29.89,South,169,4.6,4.6,32,0.00,CLR,,0.00,WeatherDisplay:10.37,2013-07-04 19:46:00,
2013-07-04 14:51:00,93.2,59.0,29.89,SE,143,3.5,3.6,32,0.00,CLR,,0.00,WeatherDisplay:10.37,2013-07-04 19:51:00,
2013-07-04 14:56:00,93.3,59.9,29.89,SE,146,2.3,2.3,33,0.00,CLR,,0.00,WeatherDisplay:10.37,2013-07-04 19:56:00,
2013-07-04 15:01:00,93.0,58.8,29.89,West,266,6.9,6.9,32,0.00,CLR,,0.00,WeatherDisplay:10.37,2013-07-04 20:01:00,
2013-07-04 15:06:00,92.9,59.6,29.88,North,1,5.8,5.8,33,0.00,CLR,,0.00,WeatherDisplay:10.37,2013-07-04 20:06:00,
2013-07-04 15:11:00,93.2,59.8,29.88,ESE,109,3.0,3.0,33,0.00,CLR,,0.00,WeatherDisplay:10.37,2013-07-04 20:11:00,
2013-07-04 15:16:00,93.3,58.2,29.88,WSW,257,3.5,3.5,31,0.00,CLR,,0.00,WeatherDisplay:10.37,2013-07-04 20:16:00,
2013-07-04 15:21:00,93.0,59.6,29.88,ENE,78,2.3,2.3,33,0.00,CLR,,0.00,WeatherDisplay:10.37,2013-07-04 20:21:00,
2013-07-04 15:26:00,93.9,58.7,29.88,SSE,147,4.6,4.6,31,0.00,CLR,,0.00,WeatherDisplay:10.37,2013-07-04 20:26:00,
2013-07-04 15:31:00,93.8,57.7,29.88,SSE,164,4.6,4.6,30,0.00,CLR,,0.00,WeatherDisplay:10.37,2013-07-04 20:31:00,
2013-07-04 15:36:00,94.3,58.1,29.88,ESE,108,4.6,4.8,30,0.00,CLR,,0.00,WeatherDisplay:10.37,2013-07-04 20:36:00,
2013-07-04 15:41:00,94.7,58.4,29.87,SW,214,3.5,3.5,30,0.00,CLR,,0.00,WeatherDisplay:10.37,2013-07-04 20:41:00,
2013-07-04 15:46:00,94.7,58.4,29.87,NE,53,6.9,6.9,30,0.00,CLR,,0.00,WeatherDisplay:10.37,2013-07-04 20:46:00,
2013-07-04 15:51:00,93.1,58.9,29.87,East,87,6.9,6.9,32,0.00,CLR,,0.00,WeatherDisplay:10.37,2013-07-04 20:51:00,
2013-07-04 15:56:00,92.5,59.2,29.87,East,80,4.6,4.8,33,0.00,CLR,,0.00,WeatherDisplay:10.37,2013-07-04 20:56:00,
2013-07-04 16:01:00,92.2,58.9,29.87,ENE,73,5.8,5.8,33,0.00,CLR,,0.00,WeatherDisplay:10.37,2013-07-04 21:01:00,
2013-07-04 16:06:00,92.1,58.0,29.87,East,84,3.5,3.5,32,0.00,CLR,,0.00,WeatherDisplay:10.37,2013-07-04 21:06:00,
2013-07-04 16:11:00,91.9,57.8,29.86,East,96,3.5,3.5,32,0.00,CLR,,0.00,WeatherDisplay:10.37,2013-07-04 21:11:00,
2013-07-04 16:16:00,91.9,57.8,29.86,East,91,3.5,3.5,32,0.00,CLR,,0.00,WeatherDisplay:10.37,2013-07-04 21:16:00,
2013-07-04 16:21:00,92.2,58.1,29.86,ENE,63,2.3,2.3,32,0.00,CLR,,0.00,WeatherDisplay:10.37,2013-07-04 21:21:00,
2013-07-04 16:26:00,92.2,58.1,29.86,ENE,70,1.1,0.0,32,0.00,CLR,,0.00,WeatherDisplay:10.37,2013-07-04 21:26:00,
2013-07-04 16:31:00,92.9,57.8,29.86,East,100,3.5,3.5,31,0.00,CLR,,0.00,WeatherDisplay:10.37,2013-07-04 21:31:00,
2013-07-04 16:36:00,93.7,58.5,29.86,ENE,67,2.3,2.3,31,0.00,CLR,,0.00,WeatherDisplay:10.37,2013-07-04 21:36:00,
2013-07-04 16:41:00,94.2,58.9,29.86,ENE,72,2.3,2.3,31,0.00,CLR,,0.00,WeatherDisplay:10.37,2013-07-04 21:41:00,
2013-07-04 16:46:00,94.1,56.0,29.85,East,100,4.6,4.6,28,0.00,CLR,,0.00,WeatherDisplay:10.37,2013-07-04 21:46:00,
2013-07-04 16:51:00,94.3,57.2,29.85,NE,43,3.0,3.0,29,0.00,CLR,,0.00,WeatherDisplay:10.37,2013-07-04 21:51:00,
2013-07-04 16:56:00,94.6,56.4,29.85,NNE,33,4.6,5.3,28,0.00,CLR,,0.00,WeatherDisplay:10.37,2013-07-04 21:56:00,
2013-07-04 17:01:00,94.4,57.2,29.85,NE,54,2.3,2.3,29,0.00,CLR,,0.00,WeatherDisplay:10.37,2013-07-04 22:01:00,
2013-07-04 17:06:00,94.9,56.7,29.85,NNE,29,4.6,4.6,28,0.00,CLR,,0.00,WeatherDisplay:10.37,2013-07-04 22:06:00,
2013-07-04 17:11:00,95.4,57.1,29.85,ENE,63,3.5,3.5,28,0.00,CLR,,0.00,WeatherDisplay:10.37,2013-07-04 22:11:00,
2013-07-04 17:16:00,95.8,57.5,29.85,East,91,3.5,3.5,28,0.00,CLR,,0.00,WeatherDisplay:10.37,2013-07-04 22:16:00,
2013-07-04 17:21:00,96.3,56.9,29.84,SSE,155,2.3,0.0,27,0.00,CLR,,0.00,WeatherDisplay:10.37,2013-07-04 22:21:00,
2013-07-04 17:26:00,96.8,56.3,29.84,SE,146,6.9,6.9,26,0.00,CLR,,0.00,WeatherDisplay:10.37,2013-07-04 22:26:00,
2013-07-04 17:31:00,96.8,57.3,29.84,ESE,122,4.6,5.9,27,0.00,CLR,,0.00,WeatherDisplay:10.37,2013-07-04 22:31:00,
2013-07-04 17:36:00,95.6,58.3,29.84,East,80,9.2,9.2,29,0.00,CLR,,0.00,WeatherDisplay:10.37,2013-07-04 22:36:00,
2013-07-04 17:41:00,94.3,57.2,29.84,ENE,60,10.4,10.4,29,0.00,CLR,,0.00,WeatherDisplay:10.37,2013-07-04 22:41:00,
2013-07-04 17:46:00,94.2,58.9,29.84,NE,54,4.6,4.6,31,0.00,CLR,,0.00,WeatherDisplay:10.37,2013-07-04 22:46:00,
2013-07-04 17:51:00,94.3,58.1,29.84,NE,50,5.8,5.8,30,0.00,CLR,,0.00,WeatherDisplay:10.37,2013-07-04 22:51:00,
2013-07-04 17:56:00,94.1,57.9,29.84,NE,44,5.8,5.8,30,0.00,CLR,,0.00,WeatherDisplay:10.37,2013-07-04 22:56:00,
2013-07-04 18:01:00,94.1,57.0,29.84,ENE,78,5.8,5.8,29,0.00,CLR,,0.00,WeatherDisplay:10.37,2013-07-04 23:01:00,
2013-07-04 18:06:00,93.8,57.7,29.83,NNE,12,1.1,1.1,30,0.00,CLR,,0.00,WeatherDisplay:10.37,2013-07-04 23:06:00,
2013-07-04 18:11:00,94.2,57.1,29.83,SSE,148,5.8,5.8,29,0.00,CLR,,0.00,WeatherDisplay:10.37,2013-07-04 23:11:00,
2013-07-04 18:16:00,94.6,57.4,29.83,SSE,159,6.9,6.9,29,0.00,CLR,,0.00,WeatherDisplay:10.37,2013-07-04 23:16:00,
2013-07-04 18:21:00,94.7,56.5,29.83,SE,136,8.1,8.1,28,0.00,CLR,,0.00,WeatherDisplay:10.37,2013-07-04 23:21:00,
2013-07-04 18:26:00,94.0,56.9,29.83,East,84,5.8,5.8,29,0.00,CLR,,0.00,WeatherDisplay:10.37,2013-07-04 23:26:00,
2013-07-04 18:31:00,94.0,55.9,29.83,SE,137,3.5,3.5,28,0.00,CLR,,0.00,WeatherDisplay:10.37,2013-07-04 23:31:00,
2013-07-04 18:36:00,94.0,56.9,29.83,ENE,70,3.5,3.5,29,0.00,CLR,,0.00,WeatherDisplay:10.37,2013-07-04 23:36:00,
2013-07-04 18:41:00,94.2,57.1,29.83,ENE,70,3.5,3.5,29,0.00,CLR,,0.00,WeatherDisplay:10.37,2013-07-04 23:41:00,
2013-07-04 18:46:00,94.0,56.9,29.83,East,98,3.5,3.5,29,0.00,CLR,,0.00,WeatherDisplay:10.37,2013-07-04 23:46:00,
2013-07-04 18:51:00,94.0,56.9,29.83,East,86,3.5,3.8,29,0.00,CLR,,0.00,WeatherDisplay:10.37,2013-07-04 23:51:00,
2013-07-04 18:56:00,93.9,56.8,29.83,ENE,57,2.3,2.3,29,0.00,CLR,,0.00,WeatherDisplay:10.37,2013-07-04 23:56:00,
2013-07-04 19:01:00,93.6,57.5,29.83,NNE,32,3.5,4.3,30,0.00,CLR,,0.00,WeatherDisplay:10.37,2013-07-05 00:01:00,
2013-07-04 19:06:00,93.3,58.2,29.83,ENE,58,5.8,5.8,31,0.00,CLR,,0.00,WeatherDisplay:10.37,2013-07-05 00:06:00,
2013-07-04 19:11:00,93.1,58.0,29.83,East,81,2.3,2.3,31,0.00,CLR,,0.00,WeatherDisplay:10.37,2013-07-05 00:11:00,
2013-07-04 19:16:00,93.0,58.8,29.83,ENE,65,3.5,0.0,32,0.00,CLR,,0.00,WeatherDisplay:10.37,2013-07-05 00:16:00,
2013-07-04 19:21:00,92.8,57.7,29.83,ESE,111,4.0,4.0,31,0.00,CLR,,0.00,WeatherDisplay:10.37,2013-07-05 00:21:00,
2013-07-04 19:26:00,92.9,57.8,29.83,East,79,3.5,3.5,31,0.00,CLR,,0.00,WeatherDisplay:10.37,2013-07-05 00:26:00,
2013-07-04 19:31:00,92.7,58.5,29.83,East,89,3.5,3.5,32,0.00,CLR,,0.00,WeatherDisplay:10.37,2013-07-05 00:31:00,
2013-07-04 19:36:00,92.6,58.4,29.84,East,91,3.5,3.5,32,0.00,CLR,,0.00,WeatherDisplay:10.37,2013-07-05 00:36:00,
2013-07-04 19:41:00,92.5,58.4,29.84,ENE,78,3.5,3.5,32,0.00,CLR,,0.00,WeatherDisplay:10.37,2013-07-05 00:41:00,
2013-07-04 19:46:00,92.3,59.0,29.84,SE,141,1.1,1.1,33,0.00,CLR,,0.00,WeatherDisplay:10.37,2013-07-05 00:46:00,
2013-07-04 19:51:00,91.8,59.4,29.84,ENE,75,3.5,3.5,34,0.00,CLR,,0.00,WeatherDisplay:10.37,2013-07-05 00:51:00,
2013-07-04 19:56:00,91.4,59.1,29.84,ENE,70,3.5,3.5,34,0.00,CLR,,0.00,WeatherDisplay:10.37,2013-07-05 00:56:00,
2013-07-04 20:01:00,91.1,58.8,29.84,East,82,3.5,3.5,34,0.00,CLR,,0.00,WeatherDisplay:10.37,2013-07-05 01:01:00,
2013-07-04 20:06:00,91.1,60.4,29.85,ESE,120,11.0,11.0,36,0.00,CLR,,0.00,WeatherDisplay:10.37,2013-07-05 01:06:00,
2013-07-04 20:11:00,91.0,61.9,29.85,SE,125,9.0,9.0,38,0.00,CLR,,0.00,WeatherDisplay:10.37,2013-07-05 01:11:00,
2013-07-04 20:16:00,90.6,63.0,29.85,SSE,156,11.5,11.5,40,0.00,CLR,,0.00,WeatherDisplay:10.37,2013-07-05 01:16:00,
2013-07-04 20:21:00,90.2,63.3,29.85,SE,136,6.9,6.9,41,0.00,CLR,,0.00,WeatherDisplay:10.37,2013-07-05 01:21:00,
2013-07-04 20:26:00,89.8,63.6,29.85,SE,138,9.2,9.2,42,0.00,CLR,,0.00,WeatherDisplay:10.37,2013-07-05 01:26:00,
2013-07-04 20:31:00,89.3,63.9,29.85,SE,137,5.8,5.8,43,0.00,CLR,,0.00,WeatherDisplay:10.37,2013-07-05 01:31:00,
2013-07-04 20:36:00,89.0,63.6,29.85,SSE,148,4.6,4.6,43,0.00,CLR,,0.00,WeatherDisplay:10.37,2013-07-05 01:36:00,
2013-07-04 20:41:00,88.7,64.0,29.86,SSE,148,8.1,8.1,44,0.00,CLR,,0.00,WeatherDisplay:10.37,2013-07-05 01:41:00,
2013-07-04 20:46:00,88.6,63.2,29.85,SSE,156,9.2,9.2,43,0.00,CLR,,0.00,WeatherDisplay:10.37,2013-07-05 01:46:00,
2013-07-04 20:51:00,88.5,63.8,29.85,SSE,156,9.2,9.2,44,0.00,CLR,,0.00,WeatherDisplay:10.37,2013-07-05 01:51:00,
2013-07-04 20:56:00,88.4,63.7,29.86,SSE,149,9.2,9.2,44,0.00,CLR,,0.00,WeatherDisplay:10.37,2013-07-05 01:56:00,
2013-07-04 21:01:00,88.2,63.5,29.86,SE,131,8.1,8.1,44,0.00,CLR,,0.00,WeatherDisplay:10.37,2013-07-05 02:01:00,
2013-07-04 21:06:00,88.0,64.0,29.86,SSE,150,5.8,6.1,45,0.00,CLR,,0.00,WeatherDisplay:10.37,2013-07-05 02:06:00,
2013-07-04 21:11:00,87.8,63.8,29.86,SSE,153,5.8,5.8,45,0.00,CLR,,0.00,WeatherDisplay:10.37,2013-07-05 02:11:00,
2013-07-04 21:17:00,87.6,64.3,29.86,SSE,150,11.5,11.5,46,0.00,CLR,,0.00,WeatherDisplay:10.37,2013-07-05 02:17:00,
2013-07-04 21:22:00,87.5,64.2,29.86,SSE,158,12.7,12.7,46,0.00,CLR,,0.00,WeatherDisplay:10.37,2013-07-05 02:22:00,
2013-07-04 21:27:00,87.3,64.0,29.86,SE,141,11.5,11.5,46,0.00,CLR,,0.00,WeatherDisplay:10.37,2013-07-05 02:27:00,
2013-07-04 21:32:00,87.0,64.3,29.87,SE,144,11.5,11.5,47,0.00,CLR,,0.00,WeatherDisplay:10.37,2013-07-05 02:32:00,
2013-07-04 21:37:00,86.6,64.6,29.87,South,188,10.4,10.4,48,0.00,CLR,,0.00,WeatherDisplay:10.37,2013-07-05 02:37:00,
2013-07-04 21:42:00,86.4,64.4,29.87,SSE,167,11.5,11.5,48,0.00,CLR,,0.00,WeatherDisplay:10.37,2013-07-05 02:42:00,
2013-07-04 21:47:00,86.1,64.7,29.88,South,169,11.5,11.5,49,0.00,CLR,,0.00,WeatherDisplay:10.37,2013-07-05 02:47:00,
2013-07-04 21:52:00,85.9,64.5,29.88,SSE,156,11.5,11.5,49,0.00,CLR,,0.00,WeatherDisplay:10.37,2013-07-05 02:52:00,
2013-07-04 21:57:00,85.6,64.2,29.88,SE,131,10.4,10.4,49,0.00,CLR,,0.00,WeatherDisplay:10.37,2013-07-05 02:57:00,
2013-07-04 22:02:00,85.3,64.6,29.89,SE,142,9.2,9.2,50,0.00,CLR,,0.00,WeatherDisplay:10.37,2013-07-05 03:02:00,
2013-07-04 22:07:00,85.1,64.4,29.89,SSE,150,7.0,7.0,50,0.00,CLR,,0.00,WeatherDisplay:10.37,2013-07-05 03:07:00,
2013-07-04 22:12:00,85.0,63.7,29.89,SSE,150,10.4,10.4,49,0.00,CLR,,0.00,WeatherDisplay:10.37,2013-07-05 03:12:00,
2013-07-04 22:17:00,84.8,64.1,29.89,SSE,150,9.2,9.2,50,0.00,CLR,,0.00,WeatherDisplay:10.37,2013-07-05 03:17:00,
2013-07-04 22:22:00,84.6,63.9,29.89,SSE,150,14.0,14.0,50,0.00,CLR,,0.00,WeatherDisplay:10.37,2013-07-05 03:22:00,
2013-07-04 22:27:00,84.4,64.3,29.89,SSE,150,10.4,10.4,51,0.00,CLR,,0.00,WeatherDisplay:10.37,2013-07-05 03:27:00,
2013-07-04 22:32:00,84.1,64.6,29.89,SSE,160,8.0,8.0,52,0.00,CLR,,0.00,WeatherDisplay:10.37,2013-07-05 03:32:00,
2013-07-04 22:37:00,83.9,64.4,29.89,SSE,159,8.1,8.1,52,0.00,CLR,,0.00,WeatherDisplay:10.37,2013-07-05 03:37:00,
2013-07-04 22:42:00,83.8,64.8,29.89,SSE,160,11.5,11.5,53,0.00,CLR,,0.00,WeatherDisplay:10.37,2013-07-05 03:42:00,
2013-07-04 22:47:00,83.7,65.3,29.90,SE,143,12.7,12.7,54,0.00,CLR,,0.00,WeatherDisplay:10.37,2013-07-05 03:47:00,
2013-07-04 22:52:00,83.4,66.1,29.90,ESE,122,11.5,11.5,56,0.00,CLR,,0.00,WeatherDisplay:10.37,2013-07-05 03:52:00,
2013-07-04 22:57:00,83.2,66.4,29.90,SSE,154,12.7,12.7,57,0.00,CLR,,0.00,WeatherDisplay:10.37,2013-07-05 03:57:00,
2013-07-04 23:01:00,83.0,66.2,29.91,East,93,12.7,12.7,57,0.00,CLR,,0.00,WeatherDisplay:10.37,2013-07-05 04:01:00,
2013-07-04 23:06:00,82.7,66.4,29.91,SSE,159,10.4,10.4,58,0.00,CLR,,0.00,WeatherDisplay:10.37,2013-07-05 04:06:00,
2013-07-04 23:11:00,82.4,66.6,29.91,SSE,154,9.2,9.2,59,0.00,CLR,,0.00,WeatherDisplay:10.37,2013-07-05 04:11:00,
2013-07-04 23:16:00,82.2,66.9,29.91,SE,129,8.1,8.1,60,0.00,CLR,,0.00,WeatherDisplay:10.37,2013-07-05 04:16:00,
2013-07-04 23:21:00,82.0,66.3,29.92,SE,131,11.5,11.5,59,0.00,CLR,,0.00,WeatherDisplay:10.37,2013-07-05 04:21:00,
2013-07-04 23:26:00,81.7,66.0,29.92,SE,139,13.0,13.0,59,0.00,CLR,,0.00,WeatherDisplay:10.37,2013-07-05 04:26:00,
2013-07-04 23:31:00,81.6,65.9,29.92,ESE,120,10.4,10.4,59,0.00,CLR,,0.00,WeatherDisplay:10.37,2013-07-05 04:31:00,
2013-07-04 23:36:00,81.5,66.3,29.92,SSE,150,6.9,7.0,60,0.00,CLR,,0.00,WeatherDisplay:10.37,2013-07-05 04:36:00,
2013-07-04 23:41:00,81.3,66.6,29.92,SE,146,9.2,9.2,61,0.00,CLR,,0.00,WeatherDisplay:10.37,2013-07-05 04:41:00,
2013-07-04 23:46:00,81.0,66.3,29.92,SE,132,6.0,6.3,61,0.00,CLR,,0.00,WeatherDisplay:10.37,2013-07-05 04:46:00,
2013-07-04 23:51:00,80.7,66.5,29.92,SE,128,5.8,5.8,62,0.00,CLR,,0.00,WeatherDisplay:10.37,2013-07-05 04:51:00,
2013-07-04 23:56:00,80.5,66.3,29.92,SE,139,10.4,10.4,62,0.00,CLR,,0.00,WeatherDisplay:10.37,2013-07-05 04:56:00,